Observation data for McLean on 11/14/2017      Previous  Date       Current Mesonet Observations  Soil Data  Daily Summary Page  Observations in Plain Language
KMCS 140605Z 19009KT 11/11 A3012 RMK A01 T01120110  RH  100%=      5-min Rain = 0
KMCS 140610Z 19010KT 11/11 A3012 RMK A01 T01120110  RH  100%=      5-min Rain = 0
KMCS 140615Z 18011KT 11/11 A3012 RMK A01 T01130110  RH  100%=      5-min Rain = 0
KMCS 140620Z 18010KT 11/11 A3012 RMK A01 T01120110  RH  100%=      5-min Rain = 0
KMCS 140625Z 19009KT 11/11 A3012 RMK A01 T01120109  RH  100%=      5-min Rain = 0
KMCS 140630Z 19010KT 11/11 A3012 RMK A01 T01120109  RH  100%=      5-min Rain = 0
KMCS 140635Z 19009KT 11/11 A3012 RMK A01 T01110109  RH  100%=      5-min Rain = 0
KMCS 140640Z 19009KT 11/11 A3012 RMK A01 T01110109  RH  100%=      5-min Rain = 0
KMCS 140645Z 19008KT 11/11 A3012 RMK A01 T01110109  RH  100%=      5-min Rain = 0
KMCS 140650Z 19008KT 11/11 A3012 RMK A01 T01120109  RH  100%=      5-min Rain = 0
KMCS 140655Z 20008KT 11/11 A3012 RMK A01 T01120109  RH  100%=      5-min Rain = 0
KMCS 140700Z 20008KT 11/11 A3011 RMK A01 T01120109  RH  100%=      5-min Rain = 0
KMCS 140705Z 20008KT 11/11 A3011 RMK A01 T01120109  RH  100%=      5-min Rain = 0
KMCS 140710Z 19008KT 11/11 A3011 RMK A01 T01120110  RH  100%=      5-min Rain = 0
KMCS 140715Z 19008KT 11/11 A3011 RMK A01 T01120110  RH  100%=      5-min Rain = 0
KMCS 140720Z 19009KT 11/11 A301 RMK A01 T01120110  RH  100%=      5-min Rain = 0
KMCS 140725Z 19008KT 11/11 A301 RMK A01 T01130110  RH  100%=      5-min Rain = 0
KMCS 140730Z 19009KT 11/11 A301 RMK A01 T01130110  RH  100%=      5-min Rain = 0
KMCS 140735Z 19009KT 11/11 A301 RMK A01 T01130110  RH  100%=      5-min Rain = 0
KMCS 140740Z 18009KT 11/11 A301 RMK A01 T01130110  RH  100%=      5-min Rain = 0
KMCS 140745Z 18009KT 11/11 A301 RMK A01 T01130110  RH  100%=      5-min Rain = 0
KMCS 140750Z 18008KT 11/11 A301 RMK A01 T01140111  RH  100%=      5-min Rain = 0
KMCS 140755Z 18008KT 11/11 A301 RMK A01 T01140112  RH  100%=      5-min Rain = 0
KMCS 140800Z 18007KT 12/11 A301 RMK A01 T01150112  RH  100%=      5-min Rain = 0
KMCS 140805Z 18007KT 12/11 A301 RMK A01 T01150113  RH  100%=      5-min Rain = 0
KMCS 140810Z 19008KT 12/11 A3009 RMK A01 T01160113  RH  100%=      5-min Rain = 0
KMCS 140815Z 18008KT 12/11 A3009 RMK A01 T01160114  RH  100%=      5-min Rain = 0
KMCS 140820Z 18009KT 12/11 A3009 RMK A01 T01160114  RH  100%=      5-min Rain = 0
KMCS 140825Z 18007KT 12/11 A3009 RMK A01 T01170114  RH  100%=      5-min Rain = 0
KMCS 140830Z 18007KT 12/12 A3009 RMK A01 T01170115  RH  100%=      5-min Rain = 0
KMCS 140835Z 17008KT 12/12 A3008 RMK A01 T01180115  RH  100%=      5-min Rain = 0
KMCS 140840Z 17009KT 12/12 A3008 RMK A01 T01180115  RH  100%=      5-min Rain = 0
KMCS 140845Z 17009KT 12/12 A3008 RMK A01 T01180115  RH  100%=      5-min Rain = 0
KMCS 140850Z 18008KT 12/12 A3008 RMK A01 T01180115  RH  100%=      5-min Rain = 0
KMCS 140855Z 17007KT 12/12 A3008 RMK A01 T01180116  RH  100%=      5-min Rain = 0
KMCS 140900Z 18007KT 12/12 A3008 RMK A01 T01190116  RH  100%=      5-min Rain = 0
KMCS 140905Z 17008KT 12/12 A3008 RMK A01 T01190116  RH  100%=      5-min Rain = 0
KMCS 140910Z 18008KT 12/12 A3008 RMK A01 T01200117  RH  100%=      5-min Rain = 0
KMCS 140915Z 18009KT 12/12 A3008 RMK A01 T01200117  RH  100%=      5-min Rain = 0
KMCS 140920Z 18008KT 12/12 A3008 RMK A01 T01200118  RH  100%=      5-min Rain = 0
KMCS 140925Z 18009KT 12/12 A3007 RMK A01 T01210118  RH  100%=      5-min Rain = 0
KMCS 140930Z 18009KT 12/12 A3007 RMK A01 T01210119  RH  100%=      5-min Rain = 0
KMCS 140935Z 18010KT 12/12 A3007 RMK A01 T01220119  RH  100%=      5-min Rain = 0
KMCS 140940Z 17009KT 12/12 A3007 RMK A01 T01220119  RH  100%=      5-min Rain = 0
KMCS 140945Z 18010KT 12/12 A3007 RMK A01 T01210118  RH  100%=      5-min Rain = 0
KMCS 140950Z 18009KT 12/12 A3006 RMK A01 T01210118  RH  100%=      5-min Rain = 0
KMCS 140955Z 17009KT 12/12 A3006 RMK A01 T01210118  RH  100%=      5-min Rain = 0
KMCS 141000Z 17009KT 12/12 A3006 RMK A01 T01210118  RH  100%=      5-min Rain = 0
KMCS 141005Z 17008KT 12/12 A3006 RMK A01 T01210118  RH  100%=      5-min Rain = 0
KMCS 141010Z 17008KT 12/12 A3006 RMK A01 T01210118  RH  100%=      5-min Rain = 0
KMCS 141015Z 17009KT 12/12 A3006 RMK A01 T01210118  RH  100%=      5-min Rain = 0
KMCS 141020Z 17007KT 12/12 A3006 RMK A01 T01210118  RH  100%=      5-min Rain = 0
KMCS 141025Z 17006KT 12/12 A3006 RMK A01 T01220119  RH  100%=      5-min Rain = 0
KMCS 141030Z 17008KT 12/12 A3006 RMK A01 T01230120  RH  100%=      5-min Rain = 0
KMCS 141035Z 17008KT 12/12 A3005 RMK A01 T01240121  RH  100%=      5-min Rain = 0
KMCS 141040Z 18009KT 12/12 A3005 RMK A01 T01240122  RH  100%=      5-min Rain = 0
KMCS 141045Z 18009KT 12/12 A3005 RMK A01 T01240122  RH  100%=      5-min Rain = 0
KMCS 141050Z 18010KT 13/12 A3005 RMK A01 T01250122  RH  100%=      5-min Rain = 0
KMCS 141055Z 18009KT 13/12 A3005 RMK A01 T01250122  RH  100%=      5-min Rain = 0
KMCS 141100Z 18010KT 12/12 A3005 RMK A01 T01240122  RH  100%=      5-min Rain = 0
KMCS 141105Z 18009KT 13/12 A3005 RMK A01 T01250122  RH  100%=      5-min Rain = 0
KMCS 141110Z 18010KT 13/12 A3005 RMK A01 T01250123  RH  100%=      5-min Rain = 0
KMCS 141115Z 18010KT 13/12 A3005 RMK A01 T01260123  RH  100%=      5-min Rain = 0
KMCS 141120Z 18010KT 13/12 A3005 RMK A01 T01260123  RH  100%=      5-min Rain = 0
KMCS 141125Z 18011KT 13/12 A3005 RMK A01 T01260124  RH  100%=      5-min Rain = 0.01
KMCS 141130Z 18009KT 13/12 A3005 RMK A01 T01270124  RH  100%=      5-min Rain = 0
KMCS 141135Z 18009KT 13/12 A3004 RMK A01 T01270124  RH  100%=      5-min Rain = 0
KMCS 141140Z 18009KT 13/12 A3004 RMK A01 T01270124  RH  100%=      5-min Rain = 0
KMCS 141145Z 18009KT 13/12 A3004 RMK A01 T01270124  RH  100%=      5-min Rain = 0
KMCS 141150Z 18010KT 13/13 A3004 RMK A01 T01280125  RH  100%=      5-min Rain = 0
KMCS 141155Z 18009KT 13/13 A3004 RMK A01 T01280125  RH  100%=      5-min Rain = 0
KMCS 141200Z 18009KT 13/13 A3004 RMK A01 T01280125  RH  100%=      5-min Rain = 0
KMCS 141205Z 17010KT 13/13 A3003 RMK A01 T01280125  RH  100%=      5-min Rain = 0
KMCS 141210Z 17010KT 13/13 A3003 RMK A01 T01280125  RH  100%=      5-min Rain = 0
KMCS 141215Z 17008KT 13/13 A3003 RMK A01 T01290126  RH  100%=      5-min Rain = 0
KMCS 141220Z 17010KT 13/13 A3003 RMK A01 T01280126  RH  100%=      5-min Rain = 0
KMCS 141225Z 17011KT 13/13 A3003 RMK A01 T01280125  RH  100%=      5-min Rain = 0
KMCS 141230Z 17012KT 13/12 A3003 RMK A01 T01270124  RH  100%=      5-min Rain = 0
KMCS 141235Z 17011KT 13/12 A3003 RMK A01 T01270124  RH  100%=      5-min Rain = 0
KMCS 141240Z 17010KT 13/13 A3003 RMK A01 T01280125  RH  100%=      5-min Rain = 0
KMCS 141245Z 17010KT 13/12 A3003 RMK A01 T01270124  RH  100%=      5-min Rain = 0
KMCS 141250Z 17011KT 13/12 A3003 RMK A01 T01270124  RH  100%=      5-min Rain = 0
KMCS 141255Z 18010KT 13/12 A3003 RMK A01 T01270124  RH  100%=      5-min Rain = 0
KMCS 141300Z 18009KT 13/12 A3003 RMK A01 T01270124  RH  100%=      5-min Rain = 0
KMCS 141305Z 17009KT 13/13 A3003 RMK A01 T01270125  RH  100%=      5-min Rain = 0
KMCS 141310Z 18009KT 13/13 A3003 RMK A01 T01280125  RH  100%=      5-min Rain = 0
KMCS 141315Z 18009KT 13/13 A3003 RMK A01 T01280125  RH  100%=      5-min Rain = 0
KMCS 141320Z 18009KT 13/13 A3004 RMK A01 T01280125  RH  100%=      5-min Rain = 0
KMCS 141325Z 18010KT 13/13 A3004 RMK A01 T01280126  RH  100%=      5-min Rain = 0
KMCS 141330Z 18010KT 13/13 A3004 RMK A01 T01290126  RH  100%=      5-min Rain = 0
KMCS 141335Z 18008G13KT 13/13 A3003 RMK A01 T01280126  RH  100%=      5-min Rain = 0
KMCS 141340Z 18010KT 13/13 A3003 RMK A01 T01290126  RH  100%=      5-min Rain = 0
KMCS 141345Z 18011KT 13/13 A3003 RMK A01 T01290126  RH  100%=      5-min Rain = 0
KMCS 141350Z 18010KT 13/13 A3003 RMK A01 T01290126  RH  100%=      5-min Rain = 0
KMCS 141355Z 18010KT 13/13 A3004 RMK A01 T01300127  RH  100%=      5-min Rain = 0
KMCS 141400Z 18010KT 13/13 A3004 RMK A01 T01300127  RH  100%=      5-min Rain = 0
KMCS 141405Z 18009KT 13/13 A3003 RMK A01 T01300127  RH  100%=      5-min Rain = 0
KMCS 141410Z 19010G16KT 13/13 A3004 RMK A01 T01310128  RH  100%=      5-min Rain = 0
KMCS 141415Z 19011KT 13/13 A3004 RMK A01 T01320129  RH  100%=      5-min Rain = 0
KMCS 141420Z 18010KT 13/13 A3004 RMK A01 T01320129  RH  100%=      5-min Rain = 0
KMCS 141425Z 18009KT 13/13 A3004 RMK A01 T01320129  RH  100%=      5-min Rain = 0
KMCS 141430Z 18011KT 13/13 A3004 RMK A01 T01320129  RH  100%=      5-min Rain = 0
KMCS 141435Z 18011G16KT 13/13 A3004 RMK A01 T01320129  RH  100%=      5-min Rain = 0
KMCS 141440Z 18011KT 13/13 A3004 RMK A01 T01320129  RH  100%=      5-min Rain = 0
KMCS 141445Z 18012KT 13/13 A3004 RMK A01 T01330130  RH  100%=      5-min Rain = 0
KMCS 141450Z 18011G16KT 13/13 A3004 RMK A01 T01330130  RH  100%=      5-min Rain = 0
KMCS 141455Z 19011KT 13/13 A3004 RMK A01 T01340131  RH  100%=      5-min Rain = 0
KMCS 141500Z 18011KT 13/13 A3004 RMK A01 T01340131  RH  100%=      5-min Rain = 0
KMCS 141505Z 18010KT 14/13 A3004 RMK A01 T01350132  RH  100%=      5-min Rain = 0
KMCS 141510Z 18010KT 14/13 A3004 RMK A01 T01350132  RH  100%=      5-min Rain = 0
KMCS 141515Z 19010KT 14/13 A3004 RMK A01 T01360133  RH  100%=      5-min Rain = 0
KMCS 141520Z 18011KT 14/13 A3004 RMK A01 T01360133  RH  100%=      5-min Rain = 0
KMCS 141525Z 18012KT 14/13 A3004 RMK A01 T01370134  RH  100%=      5-min Rain = 0
KMCS 141530Z 18012KT 14/13 A3004 RMK A01 T01370134  RH  100%=      5-min Rain = 0
KMCS 141535Z 18012KT 14/14 A3004 RMK A01 T01380135  RH  100%=      5-min Rain = 0
KMCS 141540Z 18012KT 14/14 A3004 RMK A01 T01380135  RH  100%=      5-min Rain = 0
KMCS 141545Z 18011KT 14/14 A3004 RMK A01 T01380135  RH  100%=      5-min Rain = 0
KMCS 141550Z 18013KT 14/14 A3003 RMK A01 T01380135  RH  100%=      5-min Rain = 0
KMCS 141555Z 18011G16KT 14/14 A3003 RMK A01 T01380135  RH  100%=      5-min Rain = 0
KMCS 141600Z 18012KT 14/14 A3002 RMK A01 T01390136  RH  100%=      5-min Rain = 0
KMCS 141605Z 18012KT 14/14 A3002 RMK A01 T01400137  RH  100%=      5-min Rain = 0
KMCS 141610Z 18010G15KT 14/14 A3002 RMK A01 T01420139  RH  100%=      5-min Rain = 0
KMCS 141615Z 18012KT 14/14 A3002 RMK A01 T01410138  RH  100%=      5-min Rain = 0
KMCS 141620Z 18012KT 14/14 A3001 RMK A01 T01410138  RH  100%=      5-min Rain = 0
KMCS 141625Z 19010KT 14/14 A3001 RMK A01 T01430140  RH  100%=      5-min Rain = 0
KMCS 141630Z 19012G17KT 14/14 A3001 RMK A01 T01420139  RH  100%=      5-min Rain = 0
KMCS 141635Z 19011G16KT 14/14 A3001 RMK A01 T01430140  RH  100%=      5-min Rain = 0
KMCS 141640Z 19012KT 14/14 A3001 RMK A01 T01440141  RH  100%=      5-min Rain = 0
KMCS 141645Z 19012KT 15/14 A3001 RMK A01 T01450142  RH  100%=      5-min Rain = 0
KMCS 141650Z 20013KT 15/14 A30 RMK A01 T01450142  RH  100%=      5-min Rain = 0
KMCS 141655Z 20013G18KT 15/14 A30 RMK A01 T01460143  RH  100%=      5-min Rain = 0
KMCS 141700Z 19013KT 15/15 A30 RMK A01 T01520149  RH  100%=      5-min Rain = 0
KMCS 141705Z 19012G17KT 16/15 A30 RMK A01 T01570154  RH  100%=      5-min Rain = 0
KMCS 141710Z 19016KT 16/16 A2999 RMK A01 T01610157  RH  100%=      5-min Rain = 0
KMCS 141715Z 18015G21KT 16/16 A2999 RMK A01 T01630159  RH  100%=      5-min Rain = 0
KMCS 141720Z 19016G21KT 17/14 A2999 RMK A01 T01720144  RH  086%=      5-min Rain = 0
KMCS 141725Z 19016G21KT 17/14 A2999 RMK A01 T01730136  RH  080%=      5-min Rain = 0
KMCS 141730Z 19015KT 18/14 A2999 RMK A01 T01750135  RH  079%=      5-min Rain = 0
KMCS 141735Z 19014KT 18/13 A2998 RMK A01 T01760134  RH  078%=      5-min Rain = 0
KMCS 141740Z 19014KT 18/13 A2998 RMK A01 T01810133  RH  075%=      5-min Rain = 0
KMCS 141745Z 20014G19KT 18/13 A2998 RMK A01 T01790131  RH  075%=      5-min Rain = 0
KMCS 141750Z 20012KT 18/13 A2998 RMK A01 T01810131  RH  074%=      5-min Rain = 0
KMCS 141755Z 19013G18KT 19/13 A2997 RMK A01 T01860132  RH  072%=      5-min Rain = 0
KMCS 141800Z 19013G18KT 19/13 A2997 RMK A01 T01880131  RH  071%=      5-min Rain = 0
KMCS 141805Z 20013KT 19/13 A2996 RMK A01 T01910129  RH  069%=      5-min Rain = 0
KMCS 141810Z 20012G17KT 19/13 A2996 RMK A01 T01900128  RH  068%=      5-min Rain = 0
KMCS 141815Z 20012G19KT 20/13 A2995 RMK A01 T01970129  RH  066%=      5-min Rain = 0
KMCS 141820Z 20014G19KT 20/13 A2995 RMK A01 T01960126  RH  065%=      5-min Rain = 0
KMCS 141825Z 19014G20KT 20/13 A2994 RMK A01 T02000128  RH  065%=      5-min Rain = 0
KMCS 141830Z 20012G18KT 20/13 A2994 RMK A01 T02010127  RH  063%=      5-min Rain = 0
KMCS 141835Z 19014KT 20/13 A2994 RMK A01 T02030126  RH  063%=      5-min Rain = 0
KMCS 141840Z 18015G20KT 20/13 A2993 RMK A01 T02040125  RH  062%=      5-min Rain = 0
KMCS 141845Z 18013G18KT 21/13 A2993 RMK A01 T02070125  RH  061%=      5-min Rain = 0
KMCS 141850Z 18014G20KT 21/12 A2993 RMK A01 T02080124  RH  060%=      5-min Rain = 0
KMCS 141855Z 19014KT 21/12 A2993 RMK A01 T02080122  RH  059%=      5-min Rain = 0
KMCS 141900Z 18014G19KT 21/12 A2992 RMK A01 T02120122  RH  058%=      5-min Rain = 0
KMCS 141905Z 18013G18KT 22/12 A2992 RMK A01 T02160123  RH  057%=      5-min Rain = 0
KMCS 141910Z 18017G22KT 21/12 A2991 RMK A01 T02140121  RH  056%=      5-min Rain = 0
KMCS 141915Z 19015KT 22/12 A2991 RMK A01 T02160119  RH  055%=      5-min Rain = 0
KMCS 141920Z 19015G20KT 22/12 A299 RMK A01 T02200120  RH  054%=      5-min Rain = 0
KMCS 141925Z 19015KT 22/12 A299 RMK A01 T02190117  RH  053%=      5-min Rain = 0
KMCS 141930Z 18015G20KT 22/12 A299 RMK A01 T02210119  RH  053%=      5-min Rain = 0
KMCS 141935Z 18014G19KT 22/12 A299 RMK A01 T02230119  RH  053%=      5-min Rain = 0
KMCS 141940Z 19015G20KT 23/12 A299 RMK A01 T02290118  RH  051%=      5-min Rain = 0
KMCS 141945Z 19014G19KT 23/12 A2989 RMK A01 T02260116  RH  051%=      5-min Rain = 0
KMCS 141950Z 19015G20KT 23/12 A2989 RMK A01 T02290115  RH  049%=      5-min Rain = 0
KMCS 141955Z 19015G20KT 23/11 A2989 RMK A01 T02290112  RH  048%=      5-min Rain = 0
KMCS 142000Z 18015G20KT 23/11 A2988 RMK A01 T02300112  RH  048%=      5-min Rain = 0
KMCS 142005Z 18015KT 23/11 A2988 RMK A01 T02330112  RH  047%=      5-min Rain = 0
KMCS 142010Z 19017KT 23/11 A2988 RMK A01 T02300106  RH  046%=      5-min Rain = 0
KMCS 142015Z 18015G21KT 23/11 A2988 RMK A01 T02320109  RH  047%=      5-min Rain = 0
KMCS 142020Z 18015G21KT 23/11 A2987 RMK A01 T02330108  RH  046%=      5-min Rain = 0
KMCS 142025Z 18015G22KT 24/11 A2987 RMK A01 T02370108  RH  045%=      5-min Rain = 0
KMCS 142030Z 18015G22KT 24/11 A2987 RMK A01 T02400108  RH  044%=      5-min Rain = 0
KMCS 142035Z 18017G22KT 24/10 A2986 RMK A01 T02360104  RH  044%=      5-min Rain = 0
KMCS 142040Z 19014G19KT 24/10 A2986 RMK A01 T02380103  RH  043%=      5-min Rain = 0
KMCS 142045Z 18016G24KT 24/11 A2986 RMK A01 T02420108  RH  044%=      5-min Rain = 0
KMCS 142050Z 17015G21KT 24/11 A2985 RMK A01 T02440106  RH  043%=      5-min Rain = 0
KMCS 142055Z 17016KT 24/11 A2985 RMK A01 T02430108  RH  043%=      5-min Rain = 0
KMCS 142100Z 18016G22KT 24/11 A2985 RMK A01 T02420108  RH  044%=      5-min Rain = 0
KMCS 142105Z 18014G21KT 24/11 A2985 RMK A01 T02420108  RH  043%=      5-min Rain = 0
KMCS 142110Z 18016G22KT 24/11 A2985 RMK A01 T02440106  RH  042%=      5-min Rain = 0
KMCS 142115Z 18017G22KT 24/11 A2984 RMK A01 T02430106  RH  043%=      5-min Rain = 0
KMCS 142120Z 18017G22KT 24/10 A2984 RMK A01 T02400104  RH  043%=      5-min Rain = 0
KMCS 142125Z 17016G21KT 24/10 A2984 RMK A01 T02400103  RH  043%=      5-min Rain = 0
KMCS 142130Z 18015G21KT 24/10 A2984 RMK A01 T02430099  RH  041%=      5-min Rain = 0
KMCS 142135Z 18017G22KT 25/10 A2984 RMK A01 T02450102  RH  041%=      5-min Rain = 0
KMCS 142140Z 18016G21KT 24/10 A2984 RMK A01 T02440101  RH  041%=      5-min Rain = 0
KMCS 142145Z 18015G21KT 25/10 A2984 RMK A01 T02470098  RH  040%=      5-min Rain = 0
KMCS 142150Z 18014G21KT 25/10 A2984 RMK A01 T02470101  RH  040%=      5-min Rain = 0
KMCS 142155Z 18016G21KT 25/10 A2984 RMK A01 T02450097  RH  040%=      5-min Rain = 0
KMCS 142200Z 18015G20KT 24/10 A2983 RMK A01 T02440099  RH  041%=      5-min Rain = 0
KMCS 142205Z 18015KT 25/10 A2983 RMK A01 T02460099  RH  040%=      5-min Rain = 0
KMCS 142210Z 18016G23KT 25/10 A2983 RMK A01 T02470096  RH  039%=      5-min Rain = 0
KMCS 142215Z 18015G21KT 25/10 A2983 RMK A01 T02460095  RH  039%=      5-min Rain = 0
KMCS 142220Z 18015G23KT 25/10 A2983 RMK A01 T02460095  RH  039%=      5-min Rain = 0
KMCS 142225Z 17014G19KT 25/10 A2983 RMK A01 T02450096  RH  040%=      5-min Rain = 0
KMCS 142230Z 17015KT 24/10 A2983 RMK A01 T02420096  RH  040%=      5-min Rain = 0
KMCS 142235Z 18013G18KT 24/10 A2983 RMK A01 T02400098  RH  041%=      5-min Rain = 0
KMCS 142240Z 17013G18KT 24/10 A2983 RMK A01 T02420099  RH  041%=      5-min Rain = 0
KMCS 142245Z 18012KT 24/10 A2983 RMK A01 T02390097  RH  041%=      5-min Rain = 0
KMCS 142250Z 17013KT 23/10 A2982 RMK A01 T02340096  RH  042%=      5-min Rain = 0
KMCS 142255Z 17013KT 23/10 A2982 RMK A01 T02330097  RH  043%=      5-min Rain = 0
KMCS 142300Z 18012G17KT 23/10 A2982 RMK A01 T02310097  RH  043%=      5-min Rain = 0
KMCS 142305Z 18012KT 23/10 A2982 RMK A01 T02290097  RH  044%=      5-min Rain = 0
KMCS 142310Z 17012KT 23/10 A2982 RMK A01 T02270098  RH  045%=      5-min Rain = 0
KMCS 142315Z 17012KT 23/10 A2982 RMK A01 T02250099  RH  046%=      5-min Rain = 0
KMCS 142320Z 16011G16KT 22/10 A2982 RMK A01 T02230101  RH  047%=      5-min Rain = 0
KMCS 142325Z 16010KT 22/10 A2982 RMK A01 T02200103  RH  048%=      5-min Rain = 0
KMCS 142330Z 16009KT 22/10 A2982 RMK A01 T02170103  RH  049%=      5-min Rain = 0
KMCS 142335Z 15008KT 21/10 A2982 RMK A01 T02140104  RH  050%=      5-min Rain = 0
KMCS 142340Z 15008KT 21/10 A2982 RMK A01 T02100104  RH  052%=      5-min Rain = 0
KMCS 142345Z 15009KT 21/11 A2982 RMK A01 T02060105  RH  053%=      5-min Rain = 0
KMCS 142350Z 16009KT 20/11 A2982 RMK A01 T02040106  RH  054%=      5-min Rain = 0
KMCS 142355Z 16009KT 20/11 A2982 RMK A01 T02030108  RH  055%=      5-min Rain = 0
KMCS 150000Z 15010KT 20/11 A2982 RMK A01 T02020109  RH  056%=      5-min Rain = 0
KMCS 150005Z 15009KT 20/11 A2982 RMK A01 T01990109  RH  057%=      5-min Rain = 0
KMCS 150010Z 15008KT 20/11 A2982 RMK A01 T01960110  RH  059%=      5-min Rain = 0
KMCS 150015Z 15008KT 19/11 A2983 RMK A01 T01930111  RH  060%=      5-min Rain = 0
KMCS 150020Z 15008KT 19/11 A2983 RMK A01 T01880111  RH  062%=      5-min Rain = 0
KMCS 150025Z 15009KT 19/11 A2983 RMK A01 T01870112  RH  063%=      5-min Rain = 0
KMCS 150030Z 15008KT 18/11 A2983 RMK A01 T01840112  RH  064%=      5-min Rain = 0
KMCS 150035Z 15009KT 18/11 A2983 RMK A01 T01820113  RH  065%=      5-min Rain = 0
KMCS 150040Z 15008KT 18/11 A2983 RMK A01 T01800114  RH  067%=      5-min Rain = 0
KMCS 150045Z 15008G13KT 18/12 A2983 RMK A01 T01780115  RH  068%=      5-min Rain = 0
KMCS 150050Z 15009KT 18/12 A2983 RMK A01 T01760116  RH  069%=      5-min Rain = 0
KMCS 150055Z 16010KT 18/12 A2983 RMK A01 T01760117  RH  069%=      5-min Rain = 0
KMCS 150100Z 16010KT 18/12 A2983 RMK A01 T01770118  RH  070%=      5-min Rain = 0
KMCS 150105Z 17009KT 17/12 A2983 RMK A01 T01740118  RH  071%=      5-min Rain = 0
KMCS 150110Z 17009KT 17/12 A2983 RMK A01 T01730119  RH  072%=      5-min Rain = 0
KMCS 150115Z 17009G14KT 17/12 A2983 RMK A01 T01720120  RH  072%=      5-min Rain = 0
KMCS 150120Z 17009KT 17/12 A2983 RMK A01 T01730121  RH  073%=      5-min Rain = 0
KMCS 150125Z 16010KT 17/12 A2983 RMK A01 T01740122  RH  073%=      5-min Rain = 0
KMCS 150130Z 16010KT 17/12 A2983 RMK A01 T01740122  RH  073%=      5-min Rain = 0
KMCS 150135Z 17011KT 17/12 A2983 RMK A01 T01740123  RH  073%=      5-min Rain = 0
KMCS 150140Z 17010KT 17/12 A2983 RMK A01 T01730123  RH  074%=      5-min Rain = 0
KMCS 150145Z 17010KT 17/12 A2983 RMK A01 T01720124  RH  074%=      5-min Rain = 0
KMCS 150150Z 17010KT 17/12 A2983 RMK A01 T01720124  RH  075%=      5-min Rain = 0
KMCS 150155Z 17011KT 17/12 A2982 RMK A01 T01730124  RH  075%=      5-min Rain = 0
KMCS 150200Z 17009KT 17/12 A2983 RMK A01 T01720124  RH  075%=      5-min Rain = 0
KMCS 150205Z 17010KT 17/12 A2983 RMK A01 T01720124  RH  075%=      5-min Rain = 0
KMCS 150210Z 18009KT 17/12 A2983 RMK A01 T01710124  RH  075%=      5-min Rain = 0
KMCS 150215Z 18010KT 17/12 A2983 RMK A01 T01710124  RH  076%=      5-min Rain = 0
KMCS 150220Z 18011KT 17/12 A2983 RMK A01 T01710124  RH  076%=      5-min Rain = 0
KMCS 150225Z 18011KT 17/12 A2983 RMK A01 T01700124  RH  076%=      5-min Rain = 0
KMCS 150230Z 18011KT 17/12 A2983 RMK A01 T01680124  RH  076%=      5-min Rain = 0
KMCS 150235Z 18010KT 17/12 A2983 RMK A01 T01680124  RH  076%=      5-min Rain = 0
KMCS 150240Z 18010KT 17/12 A2983 RMK A01 T01680123  RH  076%=      5-min Rain = 0
KMCS 150245Z 18009KT 17/12 A2983 RMK A01 T01660123  RH  077%=      5-min Rain = 0
KMCS 150250Z 19007KT 16/12 A2983 RMK A01 T01640122  RH  078%=      5-min Rain = 0
KMCS 150255Z 20007KT 16/12 A2983 RMK A01 T01620121  RH  078%=      5-min Rain = 0
KMCS 150300Z 20007KT 16/12 A2983 RMK A01 T01600121  RH  079%=      5-min Rain = 0
KMCS 150305Z 19007KT 16/12 A2983 RMK A01 T01590121  RH  079%=      5-min Rain = 0
KMCS 150310Z 19008KT 16/12 A2982 RMK A01 T01580120  RH  080%=      5-min Rain = 0
KMCS 150315Z 19008KT 16/12 A2982 RMK A01 T01580120  RH  080%=      5-min Rain = 0
KMCS 150320Z 19008KT 16/12 A2982 RMK A01 T01560120  RH  080%=      5-min Rain = 0
KMCS 150325Z 19009KT 16/12 A2982 RMK A01 T01560120  RH  081%=      5-min Rain = 0
KMCS 150330Z 19009KT 16/12 A2982 RMK A01 T01550119  RH  081%=      5-min Rain = 0
KMCS 150335Z 19009KT 16/12 A2982 RMK A01 T01560119  RH  080%=      5-min Rain = 0
KMCS 150340Z 20009KT 16/12 A2982 RMK A01 T01560119  RH  080%=      5-min Rain = 0
KMCS 150345Z 19008KT 16/12 A2982 RMK A01 T01560119  RH  080%=      5-min Rain = 0
KMCS 150350Z 20009KT 16/12 A2982 RMK A01 T01570118  RH  079%=      5-min Rain = 0
KMCS 150355Z 20009KT 16/12 A2982 RMK A01 T01580118  RH  079%=      5-min Rain = 0
KMCS 150400Z 20009KT 16/12 A2982 RMK A01 T01590118  RH  078%=      5-min Rain = 0
KMCS 150405Z 20009KT 16/12 A2982 RMK A01 T01600118  RH  077%=      5-min Rain = 0
KMCS 150410Z 20009KT 16/12 A2982 RMK A01 T01610117  RH  077%=      5-min Rain = 0
KMCS 150415Z 20008KT 16/12 A2982 RMK A01 T01610117  RH  077%=      5-min Rain = 0
KMCS 150420Z 20009KT 16/12 A2982 RMK A01 T01610117  RH  077%=      5-min Rain = 0
KMCS 150425Z 20009KT 16/12 A2982 RMK A01 T01600117  RH  077%=      5-min Rain = 0
KMCS 150430Z 20009KT 16/12 A2981 RMK A01 T01610117  RH  077%=      5-min Rain = 0
KMCS 150435Z 20008KT 16/12 A2982 RMK A01 T01600117  RH  077%=      5-min Rain = 0
KMCS 150440Z 20007KT 16/12 A2982 RMK A01 T01590116  RH  077%=      5-min Rain = 0
KMCS 150445Z 19007KT 15/12 A2982 RMK A01 T01540115  RH  079%=      5-min Rain = 0
KMCS 150450Z 19007KT 15/12 A2982 RMK A01 T01500115  RH  081%=      5-min Rain = 0
KMCS 150455Z 18006KT 15/11 A2982 RMK A01 T01450113  RH  083%=      5-min Rain = 0
KMCS 150500Z 18007KT 14/11 A2982 RMK A01 T01420112  RH  084%=      5-min Rain = 0
KMCS 150505Z 18007KT 14/11 A2982 RMK A01 T01410113  RH  085%=      5-min Rain = 0
KMCS 150510Z 18006KT 14/11 A2982 RMK A01 T01400114  RH  085%=      5-min Rain = 0
KMCS 150515Z 17005KT 14/11 A2982 RMK A01 T01400114  RH  086%=      5-min Rain = 0
KMCS 150520Z 17005KT 14/12 A2982 RMK A01 T01410115  RH  086%=      5-min Rain = 0
KMCS 150525Z 18006KT 14/11 A2982 RMK A01 T01410114  RH  086%=      5-min Rain = 0
KMCS 150530Z 18006KT 14/11 A2982 RMK A01 T01410114  RH  085%=      5-min Rain = 0
KMCS 150535Z 18006KT 14/11 A2982 RMK A01 T01400114  RH  086%=      5-min Rain = 0
KMCS 150540Z 18005KT 14/11 A2982 RMK A01 T01400113  RH  085%=      5-min Rain = 0
KMCS 150545Z 18004KT 14/11 A2982 RMK A01 T01410114  RH  085%=      5-min Rain = 0
KMCS 150550Z 18004KT 14/11 A2983 RMK A01 T01400113  RH  086%=      5-min Rain = 0
KMCS 150555Z 17004KT 14/11 A2983 RMK A01 T01410114  RH  086%=      5-min Rain = 0
KMCS 150600Z 17004KT 14/11 A2983 RMK A01 T01400113  RH  085%=      5-min Rain = 0

Page generated in 0.0092 seconds.